createdAt,value
2017-11-12T00:00:24.428Z,10.00
2017-11-12T00:01:24.379Z,5.60
2017-11-12T00:02:24.381Z,5.50
2017-11-12T00:03:24.373Z,7.60
2017-11-12T00:04:24.367Z,6.10
2017-11-12T00:05:24.368Z,4.60
2017-11-12T00:06:24.368Z,5.20
2017-11-12T00:07:24.353Z,4.50
2017-11-12T00:08:24.358Z,5.70
2017-11-12T00:09:24.360Z,4.20
2017-11-12T00:10:24.368Z,7.90
2017-11-12T00:11:24.364Z,5.70
2017-11-12T00:12:24.348Z,2.70
2017-11-12T00:13:24.349Z,5.50
2017-11-12T00:14:24.322Z,9.90
2017-11-12T00:15:24.323Z,5.40
2017-11-12T00:16:24.319Z,4.10
2017-11-12T00:17:24.313Z,5.70
2017-11-12T00:18:24.314Z,5.40
2017-11-12T00:19:24.302Z,11.60
2017-11-12T00:20:24.295Z,5.80
2017-11-12T00:21:24.304Z,6.70
2017-11-12T00:22:24.299Z,5.10
2017-11-12T00:23:24.288Z,3.60
2017-11-12T00:24:24.282Z,5.40
2017-11-12T00:25:24.282Z,5.00
2017-11-12T00:26:24.278Z,4.90
2017-11-12T00:27:24.269Z,4.60
2017-11-12T00:28:24.265Z,8.70
2017-11-12T00:29:24.262Z,9.10
2017-11-12T00:30:24.260Z,4.70
2017-11-12T00:31:24.253Z,7.60
2017-11-12T00:32:24.265Z,5.80
2017-11-12T00:33:24.244Z,9.20
2017-11-12T00:34:24.238Z,4.20
2017-11-12T00:35:24.244Z,4.50
2017-11-12T00:36:24.232Z,4.80
2017-11-12T00:37:24.232Z,4.60
2017-11-12T00:38:24.223Z,8.30
2017-11-12T00:39:24.222Z,2.40
2017-11-12T00:40:24.212Z,6.40
2017-11-12T00:41:24.209Z,5.70
2017-11-12T00:42:24.214Z,8.30
2017-11-12T00:43:24.204Z,4.20
2017-11-12T00:44:24.197Z,4.00
2017-11-12T00:45:24.191Z,6.80
2017-11-12T00:46:24.187Z,12.10
2017-11-12T00:47:24.180Z,3.90
2017-11-12T00:48:24.195Z,5.30
2017-11-12T00:49:24.173Z,6.20
2017-11-12T00:50:24.176Z,3.30
2017-11-12T00:51:24.170Z,3.40
2017-11-12T00:52:24.164Z,3.90
2017-11-12T00:53:24.163Z,4.50
2017-11-12T00:54:24.150Z,6.50
2017-11-12T00:55:24.153Z,3.70
2017-11-12T00:56:24.144Z,10.50
2017-11-12T00:57:24.140Z,3.70
2017-11-12T00:58:24.134Z,4.30
2017-11-12T00:59:24.133Z,5.10
2017-11-12T01:00:24.131Z,10.30
2017-11-12T01:01:24.124Z,3.70
2017-11-12T01:02:24.135Z,10.80
2017-11-12T01:03:24.118Z,7.10
2017-11-12T01:04:24.116Z,7.60
2017-11-12T01:05:24.115Z,4.90
2017-11-12T01:06:24.109Z,4.50
2017-11-12T01:07:24.129Z,4.70
2017-11-12T01:08:24.092Z,2.10
2017-11-12T01:09:24.097Z,4.20
2017-11-12T01:10:24.092Z,8.20
2017-11-12T01:11:24.077Z,2.60
2017-11-12T01:12:24.079Z,4.00
2017-11-12T01:13:24.075Z,5.10
2017-11-12T01:14:24.074Z,4.10
2017-11-12T01:15:24.058Z,4.50
2017-11-12T01:16:24.059Z,5.80
2017-11-12T01:17:24.051Z,5.40
2017-11-12T01:18:24.054Z,5.00
2017-11-12T01:19:24.042Z,6.40
2017-11-12T01:20:24.039Z,5.10
2017-11-12T01:21:24.032Z,4.90
2017-11-12T01:22:24.029Z,5.00
2017-11-12T01:23:24.029Z,5.30
2017-11-12T01:24:24.025Z,5.40
2017-11-12T01:25:24.027Z,7.10
2017-11-12T01:26:24.011Z,7.00
2017-11-12T01:27:24.011Z,4.80
2017-11-12T01:28:24.010Z,3.60
2017-11-12T01:29:24.003Z,6.90
2017-11-12T01:30:23.995Z,4.20
2017-11-12T01:31:23.994Z,3.50
2017-11-12T01:32:23.992Z,5.40
2017-11-12T01:33:23.985Z,8.00
2017-11-12T01:34:23.981Z,7.10
2017-11-12T01:35:23.979Z,7.10
2017-11-12T01:36:23.971Z,6.80
2017-11-12T01:37:23.965Z,4.70
2017-11-12T01:38:23.971Z,5.80
2017-11-12T01:39:23.965Z,6.10
2017-11-12T01:40:23.954Z,6.30
2017-11-12T01:41:23.955Z,4.80
2017-11-12T01:42:23.950Z,7.30
2017-11-12T01:43:23.943Z,3.90
2017-11-12T01:44:23.935Z,4.20
2017-11-12T01:45:23.932Z,5.90
2017-11-12T01:46:23.932Z,5.90
2017-11-12T01:47:23.919Z,5.00
2017-11-12T01:48:23.923Z,3.50
2017-11-12T01:49:23.913Z,4.10
2017-11-12T01:50:23.911Z,4.10
2017-11-12T01:51:23.901Z,5.60
2017-11-12T01:52:23.905Z,4.80
2017-11-12T01:53:23.900Z,4.20
2017-11-12T01:54:23.893Z,4.20
2017-11-12T01:55:23.888Z,6.40
2017-11-12T01:56:23.883Z,7.90
2017-11-12T01:57:23.885Z,4.90
2017-11-12T01:58:23.873Z,12.90
2017-11-12T01:59:23.869Z,4.00
2017-11-12T02:00:23.869Z,3.60
2017-11-12T02:01:23.864Z,8.50
2017-11-12T02:02:23.865Z,5.00
2017-11-12T02:03:23.851Z,4.80
2017-11-12T02:04:23.861Z,4.70
2017-11-12T02:05:23.843Z,5.40
2017-11-12T02:06:23.841Z,5.30
2017-11-12T02:07:23.832Z,8.80
2017-11-12T02:08:23.836Z,6.00
2017-11-12T02:09:23.828Z,4.30
2017-11-12T02:10:23.844Z,6.30
2017-11-12T02:11:23.823Z,3.80
2017-11-12T02:12:23.815Z,5.60
2017-11-12T02:13:23.813Z,10.30
2017-11-12T02:14:23.804Z,5.00
2017-11-12T02:15:23.800Z,5.20
2017-11-12T02:16:23.795Z,5.40
2017-11-12T02:17:23.792Z,3.80
2017-11-12T02:18:23.787Z,6.20
2017-11-12T02:19:23.780Z,7.30
2017-11-12T02:20:23.782Z,6.60
2017-11-12T02:21:23.773Z,5.70
2017-11-12T02:22:23.771Z,10.30
2017-11-12T02:23:23.763Z,9.40
2017-11-12T02:24:23.794Z,13.80
2017-11-12T02:25:23.754Z,7.50
2017-11-12T02:26:23.760Z,6.10
2017-11-12T02:27:23.745Z,6.80
2017-11-12T02:28:23.742Z,4.90
2017-11-12T02:29:23.740Z,5.80
2017-11-12T02:30:23.750Z,5.60
2017-11-12T02:31:23.732Z,9.10
2017-11-12T02:32:23.732Z,4.80
2017-11-12T02:33:23.723Z,4.20
2017-11-12T02:34:23.712Z,8.10
2017-11-12T02:35:23.709Z,11.70
2017-11-12T02:36:23.704Z,13.80
2017-11-12T02:37:23.704Z,9.30
2017-11-12T02:38:23.699Z,4.90
2017-11-12T02:39:23.692Z,6.90
2017-11-12T02:40:23.692Z,6.70
2017-11-12T02:41:23.688Z,7.00
2017-11-12T02:42:23.681Z,6.10
2017-11-12T02:43:23.679Z,12.80
2017-11-12T02:44:23.675Z,10.40
2017-11-12T02:45:23.665Z,5.90
2017-11-12T02:46:23.662Z,6.60
2017-11-12T02:47:23.659Z,5.80
2017-11-12T02:48:23.658Z,11.30
2017-11-12T02:49:23.650Z,8.60
2017-11-12T02:50:23.648Z,11.20
2017-11-12T02:51:23.642Z,4.80
2017-11-12T02:52:23.636Z,9.50
2017-11-12T02:53:23.633Z,6.50
2017-11-12T02:54:23.634Z,7.70
2017-11-12T02:55:23.629Z,8.10
2017-11-12T02:56:23.618Z,9.10
2017-11-12T02:57:23.622Z,8.30
2017-11-12T02:58:23.612Z,5.80
2017-11-12T02:59:23.609Z,7.00
2017-11-12T03:00:23.605Z,7.20
2017-11-12T03:01:23.603Z,6.60
2017-11-12T03:02:23.592Z,9.50
2017-11-12T03:03:23.593Z,10.70
2017-11-12T03:04:23.587Z,6.60
2017-11-12T03:05:23.588Z,11.90
2017-11-12T03:06:23.579Z,5.50
2017-11-12T03:07:23.577Z,9.90
2017-11-12T03:08:23.572Z,10.50
2017-11-12T03:09:23.563Z,9.70
2017-11-12T03:10:23.558Z,8.50
2017-11-12T03:11:23.560Z,5.60
2017-11-12T03:12:23.546Z,7.70
2017-11-12T03:13:23.546Z,13.30
2017-11-12T03:14:23.539Z,5.90
2017-11-12T03:15:23.548Z,4.60
2017-11-12T03:16:23.536Z,7.80
2017-11-12T03:17:23.532Z,7.10
2017-11-12T03:18:23.523Z,4.20
2017-11-12T03:19:23.523Z,5.10
2017-11-12T03:20:23.514Z,5.90
2017-11-12T03:21:23.513Z,10.80
2017-11-12T03:22:23.507Z,6.50
2017-11-12T03:23:23.500Z,6.60
2017-11-12T03:24:23.498Z,5.90
2017-11-12T03:25:23.489Z,12.30
2017-11-12T03:26:23.491Z,7.20
2017-11-12T03:27:23.488Z,8.60
2017-11-12T03:28:23.482Z,6.60
2017-11-12T03:29:23.472Z,8.50
2017-11-12T03:30:23.475Z,6.20
2017-11-12T03:31:23.467Z,8.40
2017-11-12T03:32:23.461Z,9.10
2017-11-12T03:33:23.459Z,10.60
2017-11-12T03:34:23.460Z,7.10
2017-11-12T03:35:23.452Z,6.50
2017-11-12T03:36:23.445Z,4.00
2017-11-12T03:37:23.443Z,8.40
2017-11-12T03:38:23.440Z,11.90
2017-11-12T03:39:23.428Z,7.30
2017-11-12T03:40:23.425Z,11.10
2017-11-12T03:41:23.423Z,9.80
2017-11-12T03:42:23.416Z,9.50
2017-11-12T03:43:23.412Z,8.00
2017-11-12T03:44:23.412Z,4.90
2017-11-12T03:45:23.415Z,5.90
2017-11-12T03:46:23.401Z,10.10
2017-11-12T03:47:23.394Z,9.80
2017-11-12T03:48:23.393Z,7.60
2017-11-12T03:49:23.386Z,6.80
2017-11-12T03:50:23.383Z,7.60
2017-11-12T03:51:23.379Z,10.40
2017-11-12T03:52:23.373Z,9.10
2017-11-12T03:53:23.381Z,11.90
2017-11-12T03:54:23.361Z,11.20
2017-11-12T03:55:23.370Z,10.80
2017-11-12T03:56:23.361Z,7.70
2017-11-12T03:57:23.358Z,8.10
2017-11-12T03:58:23.346Z,8.20
2017-11-12T03:59:23.342Z,7.70
2017-11-12T04:00:23.336Z,8.50
2017-11-12T04:01:23.337Z,11.50
2017-11-12T04:02:23.331Z,7.00
2017-11-12T04:03:23.323Z,9.10
2017-11-12T04:04:23.329Z,10.50
2017-11-12T04:05:23.314Z,7.40
2017-11-12T04:06:23.314Z,7.40
2017-11-12T04:07:23.312Z,8.80
2017-11-12T04:08:23.305Z,11.50
2017-11-12T04:09:23.350Z,7.30
2017-11-12T04:10:23.302Z,7.50
2017-11-12T04:11:23.292Z,13.70
2017-11-12T04:12:23.282Z,10.90
2017-11-12T04:13:23.281Z,12.00
2017-11-12T04:14:23.274Z,14.90
2017-11-12T04:15:23.292Z,7.10
2017-11-12T04:16:23.268Z,9.20
2017-11-12T04:17:23.269Z,8.70
2017-11-12T04:18:23.264Z,9.40
2017-11-12T04:19:23.256Z,9.70
2017-11-12T04:20:23.254Z,6.50
2017-11-12T04:21:23.251Z,8.80
2017-11-12T04:22:23.250Z,7.30
2017-11-12T04:23:23.232Z,9.60
2017-11-12T04:24:23.232Z,8.90
2017-11-12T04:25:23.227Z,9.60
2017-11-12T04:26:23.225Z,7.00
2017-11-12T04:27:23.226Z,7.10
2017-11-12T04:28:23.211Z,11.00
2017-11-12T04:29:23.220Z,10.60
2017-11-12T04:30:23.211Z,6.80
2017-11-12T04:31:23.206Z,10.00
2017-11-12T04:32:23.194Z,8.20
2017-11-12T04:33:23.199Z,10.00
2017-11-12T04:34:23.186Z,9.30
2017-11-12T04:35:23.185Z,8.50
2017-11-12T04:36:23.182Z,7.50
2017-11-12T04:37:23.173Z,8.20
2017-11-12T04:38:23.171Z,8.70
2017-11-12T04:39:23.167Z,12.30
2017-11-12T04:40:23.164Z,10.60
2017-11-12T04:41:23.192Z,9.90
2017-11-12T04:42:23.153Z,6.60
2017-11-12T04:43:23.152Z,11.30
2017-11-12T04:44:23.153Z,14.10
2017-11-12T04:45:23.153Z,9.30
2017-11-12T04:46:23.140Z,9.00
2017-11-12T04:47:23.131Z,9.80
2017-11-12T04:48:23.127Z,9.10
2017-11-12T04:49:23.120Z,7.60
2017-11-12T04:50:23.125Z,6.50
2017-11-12T04:51:23.112Z,9.20
2017-11-12T04:52:23.111Z,11.10
2017-11-12T04:53:23.106Z,10.60
2017-11-12T04:54:23.109Z,8.10
2017-11-12T04:55:23.099Z,9.20
2017-11-12T04:56:23.096Z,12.40
2017-11-12T04:57:23.089Z,7.20
2017-11-12T04:58:23.081Z,8.20
2017-11-12T04:59:23.081Z,12.80
2017-11-12T05:00:23.076Z,11.60
2017-11-12T05:01:23.069Z,10.20
2017-11-12T05:02:23.071Z,12.50
2017-11-12T05:03:23.062Z,15.80
2017-11-12T05:04:23.056Z,13.10
2017-11-12T05:05:23.052Z,9.40
2017-11-12T05:06:23.053Z,10.90
2017-11-12T05:07:23.040Z,8.40
2017-11-12T05:08:23.048Z,9.10
2017-11-12T05:09:23.038Z,13.20
2017-11-12T05:10:23.029Z,9.40
2017-11-12T05:11:23.029Z,8.10
2017-11-12T05:12:23.021Z,8.30
2017-11-12T05:13:23.022Z,8.30
2017-11-12T05:14:23.014Z,14.60
2017-11-12T05:15:23.014Z,12.50
2017-11-12T05:16:23.008Z,10.10
2017-11-12T05:17:23.069Z,9.40
2017-11-12T05:18:22.995Z,7.20
2017-11-12T05:19:23.005Z,10.20
2017-11-12T05:20:22.984Z,12.70
2017-11-12T05:21:22.993Z,6.50
2017-11-12T05:22:22.983Z,6.60
2017-11-12T05:23:22.993Z,14.20
2017-11-12T05:24:22.970Z,13.70
2017-11-12T05:25:22.962Z,11.40
2017-11-12T05:26:22.966Z,8.90
2017-11-12T05:27:22.955Z,8.70
2017-11-12T05:28:22.956Z,8.60
2017-11-12T05:29:22.944Z,12.30
2017-11-12T05:30:22.943Z,13.20
2017-11-12T05:31:22.937Z,9.40
2017-11-12T05:32:22.930Z,8.90
2017-11-12T05:33:22.923Z,10.30
2017-11-12T05:34:22.923Z,9.80
2017-11-12T05:35:22.914Z,11.60
2017-11-12T05:36:22.915Z,6.20
2017-11-12T05:37:22.907Z,7.00
2017-11-12T05:38:22.907Z,10.80
2017-11-12T05:39:22.902Z,9.70
2017-11-12T05:40:22.894Z,9.10
2017-11-12T05:41:22.905Z,8.00
2017-11-12T05:42:22.892Z,8.70
2017-11-12T05:43:22.878Z,13.80
2017-11-12T05:44:22.885Z,8.70
2017-11-12T05:45:22.872Z,10.60
2017-11-12T05:46:22.880Z,9.20
2017-11-12T05:47:22.863Z,9.40
2017-11-12T05:48:22.864Z,15.30
2017-11-12T05:49:22.853Z,7.00
2017-11-12T05:50:22.855Z,7.10
2017-11-12T05:51:22.846Z,9.20
2017-11-12T05:52:22.840Z,10.20
2017-11-12T05:53:22.840Z,9.60
2017-11-12T05:54:22.831Z,9.50
2017-11-12T05:55:22.834Z,11.90
2017-11-12T05:56:22.823Z,11.70
2017-11-12T05:57:22.818Z,7.00
2017-11-12T05:58:22.813Z,11.30
2017-11-12T05:59:22.813Z,5.70
2017-11-12T06:00:22.802Z,8.40
2017-11-12T06:01:22.801Z,5.10
2017-11-12T06:02:22.798Z,9.60
2017-11-12T06:03:22.795Z,8.60
2017-11-12T06:04:22.787Z,7.80
2017-11-12T06:05:22.781Z,7.10
2017-11-12T06:06:22.778Z,10.30
2017-11-12T06:07:22.811Z,10.50
2017-11-12T06:08:22.782Z,11.30
2017-11-12T06:09:22.768Z,7.80
2017-11-12T06:10:22.780Z,11.30
2017-11-12T06:11:22.752Z,7.50
2017-11-12T06:12:22.749Z,13.10
2017-11-12T06:13:22.747Z,13.30
2017-11-12T06:14:22.742Z,11.60
2017-11-12T06:15:22.751Z,9.60
2017-11-12T06:16:22.735Z,10.40
2017-11-12T06:17:22.727Z,10.00
2017-11-12T06:18:22.728Z,7.90
2017-11-12T06:19:22.720Z,10.60
2017-11-12T06:20:22.746Z,12.10
2017-11-12T06:21:22.713Z,8.60
2017-11-12T06:22:22.711Z,10.10
2017-11-12T06:23:22.704Z,7.60
2017-11-12T06:24:22.703Z,8.10
2017-11-12T06:25:22.706Z,9.70
2017-11-12T06:26:22.698Z,7.90
2017-11-12T06:27:22.694Z,10.40
2017-11-12T06:28:22.680Z,7.40
2017-11-12T06:29:22.682Z,9.50
2017-11-12T06:30:22.674Z,6.70
2017-11-12T06:31:22.669Z,8.30
2017-11-12T06:32:22.664Z,11.70
2017-11-12T06:33:22.665Z,14.50
2017-11-12T06:34:22.654Z,6.00
2017-11-12T06:35:22.649Z,12.00
2017-11-12T06:36:22.651Z,8.30
2017-11-12T06:37:22.642Z,20.20
2017-11-12T06:38:22.639Z,9.40
2017-11-12T06:39:22.631Z,6.60
2017-11-12T06:40:22.637Z,8.00
2017-11-12T06:41:22.624Z,6.80
2017-11-12T06:42:22.623Z,10.00
2017-11-12T06:43:22.619Z,9.40
2017-11-12T06:44:22.626Z,7.70
2017-11-12T06:45:22.613Z,7.60
2017-11-12T06:46:22.611Z,6.80
2017-11-12T06:47:22.612Z,6.70
2017-11-12T06:48:22.597Z,8.80
2017-11-12T06:49:22.595Z,7.60
2017-11-12T06:50:22.596Z,11.20
2017-11-12T06:51:22.584Z,10.30
2017-11-12T06:52:22.585Z,4.60
2017-11-12T06:53:22.580Z,8.60
2017-11-12T06:54:22.575Z,6.40
2017-11-12T06:55:22.594Z,7.80
2017-11-12T06:56:22.563Z,7.30
2017-11-12T06:57:22.569Z,5.00
2017-11-12T06:58:22.558Z,5.90
2017-11-12T06:59:22.564Z,7.50
2017-11-12T07:00:22.553Z,8.10
2017-11-12T07:01:22.548Z,8.60
2017-11-12T07:02:22.538Z,8.40
2017-11-12T07:03:22.534Z,9.70
2017-11-12T07:04:22.531Z,5.20
2017-11-12T07:05:22.528Z,5.50
2017-11-12T07:06:22.525Z,7.40
2017-11-12T07:07:22.519Z,6.60
2017-11-12T07:08:22.518Z,8.30
2017-11-12T07:09:22.518Z,8.10
2017-11-12T07:10:22.509Z,7.70
2017-11-12T07:11:22.507Z,12.00
2017-11-12T07:12:22.504Z,6.00
2017-11-12T07:13:22.533Z,8.10
2017-11-12T07:14:22.499Z,10.30
2017-11-12T07:15:22.493Z,7.50
2017-11-12T07:16:22.490Z,6.00
2017-11-12T07:17:22.481Z,8.00
2017-11-12T07:18:22.479Z,8.00
2017-11-12T07:19:22.471Z,6.80
2017-11-12T07:20:22.479Z,12.20
2017-11-12T07:21:22.464Z,8.90
2017-11-12T07:22:22.487Z,11.90
2017-11-12T07:23:22.463Z,7.10
2017-11-12T07:24:22.463Z,5.90
2017-11-12T07:25:22.449Z,7.30
2017-11-12T07:26:22.448Z,8.30
2017-11-12T07:27:22.442Z,8.70
2017-11-12T07:28:22.448Z,11.30
2017-11-12T07:29:22.455Z,7.60
2017-11-12T07:30:22.434Z,8.70
2017-11-12T07:31:22.441Z,7.10
2017-11-12T07:32:22.422Z,6.20
2017-11-12T07:33:22.421Z,6.40
2017-11-12T07:34:22.423Z,10.90
2017-11-12T07:35:22.410Z,8.30
2017-11-12T07:36:22.411Z,7.40
2017-11-12T07:37:22.402Z,10.20
2017-11-12T07:38:22.405Z,7.10
2017-11-12T07:39:22.396Z,8.90
2017-11-12T07:40:22.400Z,3.90
2017-11-12T07:41:22.390Z,5.30
2017-11-12T07:42:22.390Z,11.10
2017-11-12T07:43:22.380Z,6.70
2017-11-12T07:44:22.377Z,7.30
2017-11-12T07:45:22.373Z,8.40
2017-11-12T07:46:22.375Z,10.60
2017-11-12T07:47:22.368Z,5.90
2017-11-12T07:48:22.365Z,6.60
2017-11-12T07:49:22.357Z,6.30
2017-11-12T07:50:22.354Z,16.20
2017-11-12T07:51:22.353Z,8.20
2017-11-12T07:52:22.353Z,12.80
2017-11-12T07:53:22.344Z,6.00
2017-11-12T07:54:22.349Z,5.30
2017-11-12T07:55:22.333Z,8.30
2017-11-12T07:56:22.345Z,8.80
2017-11-12T07:57:22.333Z,6.80
2017-11-12T07:58:22.328Z,9.30
2017-11-12T07:59:22.320Z,9.40
2017-11-12T08:00:22.317Z,14.10
2017-11-12T08:01:22.322Z,28.30
2017-11-12T08:02:22.313Z,22.00
2017-11-12T08:03:22.308Z,9.60
2017-11-12T08:04:22.301Z,11.10
2017-11-12T08:05:22.297Z,7.10
2017-11-12T08:06:22.297Z,7.70
2017-11-12T08:07:22.292Z,11.20
2017-11-12T08:08:22.287Z,9.00
2017-11-12T08:09:22.295Z,11.80
2017-11-12T08:10:22.282Z,6.30
2017-11-12T08:11:22.280Z,10.50
2017-11-12T08:12:22.275Z,6.40
2017-11-12T08:13:22.271Z,6.10
2017-11-12T08:14:22.268Z,7.70
2017-11-12T08:15:22.267Z,7.10
2017-11-12T08:16:22.258Z,8.90
2017-11-12T08:17:22.263Z,8.50
2017-11-12T08:18:22.254Z,6.70
2017-11-12T08:19:22.260Z,6.40
2017-11-12T08:20:22.247Z,9.30
2017-11-12T08:21:22.244Z,7.90
2017-11-12T08:22:22.236Z,7.10
2017-11-12T08:23:22.235Z,6.70
2017-11-12T08:24:22.233Z,5.60
2017-11-12T08:25:22.230Z,9.80
2017-11-12T08:26:22.223Z,4.10
2017-11-12T08:27:22.218Z,6.50
2017-11-12T08:28:22.217Z,17.90
2017-11-12T08:29:22.217Z,14.30
2017-11-12T08:30:22.219Z,21.80
2017-11-12T08:31:22.203Z,15.30
2017-11-12T08:32:22.209Z,17.50
2017-11-12T08:33:22.200Z,13.40
2017-11-12T08:34:22.201Z,22.00
2017-11-12T08:35:22.193Z,22.40
2017-11-12T08:36:22.189Z,30.10
2017-11-12T08:37:22.186Z,13.90
2017-11-12T08:38:22.197Z,15.90
2017-11-12T08:39:22.178Z,20.30
2017-11-12T08:40:22.183Z,13.60
2017-11-12T08:41:22.178Z,22.00
2017-11-12T08:42:22.172Z,41.40
2017-11-12T08:43:22.166Z,32.60
2017-11-12T08:44:22.405Z,39.40
2017-11-12T08:45:22.163Z,17.80
2017-11-12T08:46:22.155Z,17.60
2017-11-12T08:47:22.155Z,18.60
2017-11-12T08:48:22.161Z,20.40
2017-11-12T08:49:22.147Z,13.50
2017-11-12T08:50:22.143Z,13.90
2017-11-12T08:51:22.140Z,11.20
2017-11-12T08:52:22.141Z,13.10
2017-11-12T08:53:22.134Z,12.40
2017-11-12T08:54:22.151Z,16.30
2017-11-12T08:55:22.126Z,9.40
2017-11-12T08:56:22.124Z,9.40
2017-11-12T08:57:22.125Z,13.20
2017-11-12T08:58:22.120Z,13.20
2017-11-12T08:59:22.114Z,10.60
2017-11-12T09:00:22.113Z,12.90
2017-11-12T09:01:22.109Z,23.50
2017-11-12T09:02:22.103Z,25.20
2017-11-12T09:03:22.107Z,39.90
2017-11-12T09:04:22.102Z,17.40
2017-11-12T09:05:22.106Z,7.70
2017-11-12T09:06:22.100Z,13.10
2017-11-12T09:07:22.094Z,9.60
2017-11-12T09:08:22.089Z,11.40
2017-11-12T09:09:22.084Z,14.50
2017-11-12T09:10:22.086Z,15.00
2017-11-12T09:11:22.081Z,18.30
2017-11-12T09:12:22.089Z,16.20
2017-11-12T09:13:22.075Z,17.30
2017-11-12T09:14:22.076Z,12.90
2017-11-12T09:15:22.079Z,12.30
2017-11-12T09:16:22.064Z,15.30
2017-11-12T09:17:22.063Z,8.90
2017-11-12T09:18:22.086Z,8.20
2017-11-12T09:19:22.065Z,10.10
2017-11-12T09:20:22.060Z,16.90
2017-11-12T09:21:22.080Z,9.60
2017-11-12T09:22:22.062Z,14.00
2017-11-12T09:23:22.044Z,14.10
2017-11-12T09:24:22.041Z,9.50
2017-11-12T09:25:22.037Z,13.80
2017-11-12T09:26:22.035Z,8.70
2017-11-12T09:27:22.033Z,9.80
2017-11-12T09:28:22.030Z,9.60
2017-11-12T09:29:22.030Z,8.60
2017-11-12T09:30:22.026Z,9.20
2017-11-12T09:31:22.021Z,11.70
2017-11-12T09:32:22.020Z,10.00
2017-11-12T09:33:22.018Z,13.40
2017-11-12T09:34:22.014Z,10.60
2017-11-12T09:35:22.014Z,10.00
2017-11-12T09:36:22.006Z,9.30
2017-11-12T09:37:22.040Z,12.50
2017-11-12T09:38:22.003Z,8.00
2017-11-12T09:39:21.999Z,14.80
2017-11-12T09:40:21.995Z,7.30
2017-11-12T09:41:21.996Z,7.80
2017-11-12T09:42:21.994Z,11.00
2017-11-12T09:43:21.986Z,8.10
2017-11-12T09:44:21.986Z,7.00
2017-11-12T09:45:21.991Z,11.60
2017-11-12T09:46:21.984Z,10.40
2017-11-12T09:47:21.977Z,8.60
2017-11-12T09:48:21.974Z,7.00
2017-11-12T09:49:21.975Z,11.60
2017-11-12T09:50:21.971Z,14.70
2017-11-12T09:51:21.972Z,10.10
2017-11-12T09:52:21.968Z,9.00
2017-11-12T09:53:21.966Z,9.30
2017-11-12T09:54:21.965Z,7.10
2017-11-12T09:55:21.953Z,10.10
2017-11-12T09:56:21.955Z,8.00
2017-11-12T09:57:21.955Z,11.10
2017-11-12T09:58:21.950Z,10.90
2017-11-12T09:59:21.949Z,10.60
2017-11-12T10:00:21.948Z,11.10
2017-11-12T10:01:21.942Z,12.50
2017-11-12T10:02:21.939Z,13.50
2017-11-12T10:03:21.936Z,11.70
2017-11-12T10:04:21.933Z,12.60
2017-11-12T10:05:21.934Z,10.70
2017-11-12T10:06:21.943Z,12.50
2017-11-12T10:07:21.925Z,9.60
2017-11-12T10:08:21.924Z,11.10
2017-11-12T10:09:21.921Z,8.10
2017-11-12T10:10:21.925Z,12.40
2017-11-12T10:11:21.925Z,13.70
2017-11-12T10:12:21.915Z,14.30
2017-11-12T10:13:21.917Z,13.10
2017-11-12T10:14:21.909Z,13.40
2017-11-12T10:15:21.915Z,22.50
2017-11-12T10:16:21.924Z,19.50
2017-11-12T10:17:21.904Z,32.40
2017-11-12T10:18:21.907Z,21.30
2017-11-12T10:19:21.902Z,18.30
2017-11-12T10:20:21.899Z,13.30
2017-11-12T10:21:21.895Z,12.00
2017-11-12T10:22:21.891Z,12.20
2017-11-12T10:23:21.899Z,16.10
2017-11-12T10:24:21.896Z,21.20
2017-11-12T10:25:21.891Z,13.00
2017-11-12T10:26:21.884Z,12.70
2017-11-12T10:27:21.881Z,12.10
2017-11-12T10:28:21.886Z,14.60
2017-11-12T10:29:21.877Z,17.10
2017-11-12T10:30:21.876Z,17.20
2017-11-12T10:31:21.889Z,23.70
2017-11-12T10:32:21.873Z,21.30
2017-11-12T10:33:21.870Z,18.40
2017-11-12T10:34:21.890Z,25.90
2017-11-12T10:35:21.865Z,27.50
2017-11-12T10:36:21.870Z,44.10
2017-11-12T10:37:21.863Z,35.10
2017-11-12T10:38:21.862Z,49.70
2017-11-12T10:39:21.855Z,49.10
2017-11-12T10:40:21.853Z,51.60
2017-11-12T10:41:21.855Z,46.10
2017-11-12T10:42:21.850Z,32.20
2017-11-12T10:43:21.854Z,37.60
2017-11-12T10:44:21.847Z,29.40
2017-11-12T10:45:21.865Z,26.40
2017-11-12T10:46:21.840Z,29.70
2017-11-12T10:47:21.844Z,22.10
2017-11-12T10:48:21.841Z,15.70
2017-11-12T10:49:21.852Z,11.40
2017-11-12T10:50:21.845Z,16.30
2017-11-12T10:51:21.835Z,20.50
2017-11-12T10:52:21.834Z,15.80
2017-11-12T10:53:21.839Z,15.50
2017-11-12T10:54:21.824Z,10.90
2017-11-12T10:55:21.830Z,6.50
2017-11-12T10:56:21.829Z,14.60
2017-11-12T10:57:21.821Z,9.70
2017-11-12T10:58:21.826Z,8.40
2017-11-12T10:59:21.813Z,10.90
2017-11-12T11:00:21.820Z,10.60
2017-11-12T11:01:21.831Z,12.80
2017-11-12T11:02:21.814Z,9.70
2017-11-12T11:03:21.818Z,11.10
2017-11-12T11:04:21.816Z,8.20
2017-11-12T11:05:21.806Z,10.80
2017-11-12T11:06:21.810Z,11.60
2017-11-12T11:07:21.801Z,13.50
2017-11-12T11:08:21.801Z,13.50
2017-11-12T11:09:21.810Z,11.60
2017-11-12T11:10:21.801Z,11.00
2017-11-12T11:11:21.806Z,9.90
2017-11-12T11:12:21.807Z,7.50
2017-11-12T11:13:21.808Z,9.20
2017-11-12T11:14:21.797Z,9.70
2017-11-12T11:15:21.791Z,10.50
2017-11-12T11:16:21.791Z,10.80
2017-11-12T11:17:21.794Z,9.50
2017-11-12T11:18:21.790Z,11.20
2017-11-12T11:19:21.785Z,9.80
2017-11-12T11:20:21.793Z,7.90
2017-11-12T11:21:21.793Z,12.50
2017-11-12T11:22:21.840Z,8.60
2017-11-12T11:23:21.780Z,10.00
2017-11-12T11:24:21.779Z,7.20
2017-11-12T11:25:21.782Z,6.20
2017-11-12T11:26:21.775Z,11.00
2017-11-12T11:27:21.795Z,8.90
2017-11-12T11:28:21.771Z,7.40
2017-11-12T11:29:21.775Z,9.00
2017-11-12T11:30:21.774Z,8.60
2017-11-12T11:31:21.768Z,7.80
2017-11-12T11:32:21.765Z,11.30
2017-11-12T11:33:21.768Z,10.50
2017-11-12T11:34:21.769Z,17.80
2017-11-12T11:35:21.770Z,11.00
2017-11-12T11:36:21.764Z,13.00
2017-11-12T11:37:21.757Z,12.60
2017-11-12T11:38:21.758Z,9.60
2017-11-12T11:39:21.754Z,13.10
2017-11-12T11:40:21.762Z,8.00
2017-11-12T11:41:21.752Z,8.90
2017-11-12T11:42:21.753Z,10.10
2017-11-12T11:43:21.748Z,9.70
2017-11-12T11:44:21.755Z,10.00
2017-11-12T11:45:21.751Z,10.70
2017-11-12T11:46:21.752Z,12.90
2017-11-12T11:47:21.756Z,11.30
2017-11-12T11:48:21.746Z,10.20
2017-11-12T11:49:21.746Z,10.90
2017-11-12T11:50:21.750Z,13.20
2017-11-12T11:51:21.749Z,8.80
2017-11-12T11:52:22.083Z,9.60
2017-11-12T11:53:21.740Z,8.50
2017-11-12T11:54:21.745Z,11.10
2017-11-12T11:55:21.737Z,8.60
2017-11-12T11:56:21.738Z,9.70
2017-11-12T11:57:21.737Z,13.20
2017-11-12T11:58:21.733Z,11.00
2017-11-12T11:59:21.735Z,8.00
2017-11-12T12:00:21.736Z,9.50
2017-11-12T12:01:21.740Z,11.80
2017-11-12T12:02:21.732Z,7.80
2017-11-12T12:03:21.731Z,9.70
2017-11-12T12:04:21.734Z,9.20
2017-11-12T12:05:21.732Z,13.10
2017-11-12T12:06:21.730Z,12.30
2017-11-12T12:07:21.724Z,9.10
2017-11-12T12:08:21.729Z,6.40
2017-11-12T12:09:21.735Z,6.90
2017-11-12T12:10:21.726Z,9.40
2017-11-12T12:11:21.721Z,11.10
2017-11-12T12:12:21.720Z,9.50
2017-11-12T12:13:21.752Z,10.60
2017-11-12T12:14:21.726Z,10.30
2017-11-12T12:15:21.722Z,11.00
2017-11-12T12:16:21.716Z,8.40
2017-11-12T12:17:21.711Z,6.50
2017-11-12T12:18:21.717Z,13.50
2017-11-12T12:19:21.717Z,6.50
2017-11-12T12:20:21.711Z,7.50
2017-11-12T12:21:21.717Z,13.60
2017-11-12T12:22:21.707Z,7.80
2017-11-12T12:23:21.706Z,9.10
2017-11-12T12:24:21.706Z,8.70
2017-11-12T12:25:21.709Z,5.90
2017-11-12T12:26:21.703Z,12.30
2017-11-12T12:27:21.702Z,10.30
2017-11-12T12:28:21.709Z,11.20
2017-11-12T12:29:21.699Z,9.50
2017-11-12T12:30:21.702Z,8.60
2017-11-12T12:31:21.697Z,11.40
2017-11-12T12:32:21.694Z,11.30
2017-11-12T12:33:21.695Z,8.90
2017-11-12T12:34:21.693Z,8.80
2017-11-12T12:35:21.698Z,13.60
2017-11-12T12:36:21.689Z,8.10
2017-11-12T12:37:21.691Z,10.50
2017-11-12T12:38:21.694Z,9.50
2017-11-12T12:39:21.685Z,7.80
2017-11-12T12:40:21.684Z,10.90
2017-11-12T12:41:21.693Z,8.90
2017-11-12T12:42:21.683Z,9.80
2017-11-12T12:43:21.685Z,11.10
2017-11-12T12:44:21.684Z,13.10
2017-11-12T12:45:21.730Z,11.00
2017-11-12T12:46:21.690Z,10.00
2017-11-12T12:47:21.691Z,8.80
2017-11-12T12:48:21.680Z,10.60
2017-11-12T12:49:21.676Z,10.50
2017-11-12T12:50:21.674Z,9.90
2017-11-12T12:51:21.673Z,10.60
2017-11-12T12:52:21.673Z,7.70
2017-11-12T12:53:21.672Z,11.30
2017-11-12T12:54:21.673Z,10.20
2017-11-12T12:55:21.672Z,9.40
2017-11-12T12:56:21.685Z,8.90
2017-11-12T12:57:21.666Z,16.10
2017-11-12T12:58:21.674Z,13.60
2017-11-12T12:59:21.665Z,16.20
2017-11-12T13:00:21.666Z,8.70
2017-11-12T13:01:21.669Z,9.30
2017-11-12T13:02:21.666Z,9.40
2017-11-12T13:03:21.661Z,7.90
2017-11-12T13:04:21.664Z,10.60
2017-11-12T13:05:21.668Z,13.20
2017-11-12T13:06:21.666Z,9.10
2017-11-12T13:07:21.658Z,10.60
2017-11-12T13:08:21.655Z,10.10